UKDR/KWG METAR and TAF weather

Enter ICAO airport designator
Station Type Date Time Source
UKDR METAR 2020/01/19 14:30 UTC NOAA

UKDR 191430Z 02002MPS 0700 0550N R36/P2000N FZFG VV003 M03/M03 Q1031 R36/19//60 NOSIG


Station Type Date Time Source
UKDR Decoded METAR 2020/01/19 14:30 UTC NOAA

Krivyy Rih / Dnipropetrovs'k, Ukraine (UKDR) 48-03N 033-13-12E
Jan 19, 2020 - 09:30 AM EST / 2020.01.19 1430 UTC
Wind: from the NNE (020 degrees) at 4 MPH (4 KT):0
Visibility: less than 1 mile:0
Sky conditions: obscured
Weather: freezing fog
Temperature: 26 F (-3 C)
Dew Point: 26 F (-3 C)
Relative Humidity: 100%
Pressure (altimeter): 30.45 in. Hg (1031 hPa)
ob: UKDR 191430Z 02002MPS 0700 0550N R36/P2000N FZFG VV003 M03/M03 Q1031 R36/19//60 NOSIG
cycle: 14

Station Type Date Time Source
UKDR TAF 2020/01/19 12:00 UTC NOAA

TAF UKDR 191102Z 1912/2012 04002MPS 0400 FZFG VV002 TX01/2012Z TNM03/2006Z
TEMPO 1912/1915 1400 BR OVC004
BECMG 2009/2011 33004MPS 2100 BR OVC005

Example: see airport list